sensor_id;sensor_type;location;lat;lon;timestamp;P1;durP1;ratioP1;P2;durP2;ratioP2
24485;SDS011;13449;49.374;8.584;2022-09-27T00:01:03;0.68;;;0.68;;
24485;SDS011;13449;49.374;8.584;2022-09-27T00:03:34;2.42;;;0.85;;
24485;SDS011;13449;49.374;8.584;2022-09-27T00:06:15;1.70;;;0.60;;
24485;SDS011;13449;49.374;8.584;2022-09-27T00:08:47;2.13;;;0.60;;
24485;SDS011;13449;49.374;8.584;2022-09-27T00:13:55;1.85;;;1.05;;
24485;SDS011;13449;49.374;8.584;2022-09-27T00:16:28;3.72;;;1.10;;
24485;SDS011;13449;49.374;8.584;2022-09-27T00:19:13;2.10;;;0.85;;
24485;SDS011;13449;49.374;8.584;2022-09-27T00:21:44;3.53;;;1.00;;
24485;SDS011;13449;49.374;8.584;2022-09-27T00:24:16;3.63;;;1.20;;
24485;SDS011;13449;49.374;8.584;2022-09-27T00:26:47;3.42;;;0.90;;
24485;SDS011;13449;49.374;8.584;2022-09-27T00:29:15;1.65;;;1.15;;
24485;SDS011;13449;49.374;8.584;2022-09-27T00:31:42;2.67;;;0.88;;
24485;SDS011;13449;49.374;8.584;2022-09-27T00:34:10;10.68;;;1.50;;
24485;SDS011;13449;49.374;8.584;2022-09-27T00:36:44;3.38;;;0.88;;
24485;SDS011;13449;49.374;8.584;2022-09-27T00:39:10;2.13;;;1.00;;
24485;SDS011;13449;49.374;8.584;2022-09-27T00:41:37;1.33;;;0.85;;
24485;SDS011;13449;49.374;8.584;2022-09-27T00:44:05;12.25;;;1.15;;
24485;SDS011;13449;49.374;8.584;2022-09-27T00:46:59;3.90;;;1.30;;
24485;SDS011;13449;49.374;8.584;2022-09-27T00:49:32;3.47;;;1.80;;
24485;SDS011;13449;49.374;8.584;2022-09-27T00:52:07;5.63;;;1.30;;
24485;SDS011;13449;49.374;8.584;2022-09-27T00:54:39;1.33;;;1.00;;
24485;SDS011;13449;49.374;8.584;2022-09-27T00:57:09;1.20;;;1.05;;
24485;SDS011;13449;49.374;8.584;2022-09-27T00:59:44;8.85;;;1.20;;
24485;SDS011;13449;49.374;8.584;2022-09-27T01:02:14;1.73;;;1.08;;
24485;SDS011;13449;49.374;8.584;2022-09-27T01:04:41;1.73;;;1.02;;
24485;SDS011;13449;49.374;8.584;2022-09-27T01:07:10;3.72;;;1.23;;
24485;SDS011;13449;49.374;8.584;2022-09-27T01:09:39;1.42;;;1.00;;
24485;SDS011;13449;49.374;8.584;2022-09-27T01:17:38;1.95;;;0.90;;
24485;SDS011;13449;49.374;8.584;2022-09-27T01:31:12;0.98;;;0.85;;
24485;SDS011;13449;49.374;8.584;2022-09-27T01:33:46;3.20;;;1.00;;
24485;SDS011;13449;49.374;8.584;2022-09-27T01:36:30;4.32;;;1.20;;
24485;SDS011;13449;49.374;8.584;2022-09-27T01:42:40;1.10;;;0.80;;
24485;SDS011;13449;49.374;8.584;2022-09-27T01:45:35;1.40;;;0.85;;
24485;SDS011;13449;49.374;8.584;2022-09-27T01:48:41;2.58;;;0.90;;
24485;SDS011;13449;49.374;8.584;2022-09-27T01:51:11;1.00;;;0.82;;
24485;SDS011;13449;49.374;8.584;2022-09-27T01:53:45;1.23;;;0.75;;
24485;SDS011;13449;49.374;8.584;2022-09-27T01:56:20;1.65;;;0.77;;
24485;SDS011;13449;49.374;8.584;2022-09-27T01:58:53;1.80;;;1.08;;
24485;SDS011;13449;49.374;8.584;2022-09-27T02:01:25;3.78;;;0.90;;
24485;SDS011;13449;49.374;8.584;2022-09-27T02:03:55;3.58;;;0.70;;
24485;SDS011;13449;49.374;8.584;2022-09-27T02:06:27;1.10;;;0.80;;
24485;SDS011;13449;49.374;8.584;2022-09-27T02:09:06;2.53;;;0.93;;
24485;SDS011;13449;49.374;8.584;2022-09-27T02:11:37;2.83;;;0.70;;
24485;SDS011;13449;49.374;8.584;2022-09-27T02:14:11;2.30;;;1.42;;
24485;SDS011;13449;49.374;8.584;2022-09-27T02:16:50;8.13;;;0.80;;
24485;SDS011;13449;49.374;8.584;2022-09-27T02:28:26;2.08;;;1.02;;
24485;SDS011;13449;49.374;8.584;2022-09-27T02:30:58;2.00;;;0.95;;
24485;SDS011;13449;49.374;8.584;2022-09-27T02:33:26;0.80;;;0.73;;
24485;SDS011;13449;49.374;8.584;2022-09-27T02:36:08;1.98;;;1.17;;
24485;SDS011;13449;49.374;8.584;2022-09-27T02:38:37;1.35;;;0.88;;
24485;SDS011;13449;49.374;8.584;2022-09-27T02:41:10;2.15;;;1.65;;
24485;SDS011;13449;49.374;8.584;2022-09-27T02:43:40;5.85;;;1.38;;
24485;SDS011;13449;49.374;8.584;2022-09-27T02:48:52;6.97;;;1.20;;
24485;SDS011;13449;49.374;8.584;2022-09-27T02:54:20;7.73;;;1.83;;
24485;SDS011;13449;49.374;8.584;2022-09-27T02:57:11;11.00;;;2.38;;
24485;SDS011;13449;49.374;8.584;2022-09-27T03:00:11;7.60;;;1.83;;
24485;SDS011;13449;49.374;8.584;2022-09-27T03:05:34;13.98;;;2.97;;
24485;SDS011;13449;49.374;8.584;2022-09-27T03:08:06;6.68;;;2.40;;
24485;SDS011;13449;49.374;8.584;2022-09-27T03:10:33;4.57;;;1.65;;
24485;SDS011;13449;49.374;8.584;2022-09-27T03:13:00;3.53;;;2.00;;
24485;SDS011;13449;49.374;8.584;2022-09-27T03:15:27;9.18;;;2.10;;
24485;SDS011;13449;49.374;8.584;2022-09-27T03:17:53;5.22;;;1.98;;
24485;SDS011;13449;49.374;8.584;2022-09-27T03:20:20;9.60;;;1.80;;
24485;SDS011;13449;49.374;8.584;2022-09-27T03:22:48;6.90;;;2.00;;
24485;SDS011;13449;49.374;8.584;2022-09-27T03:25:17;5.78;;;1.92;;
24485;SDS011;13449;49.374;8.584;2022-09-27T03:27:47;8.02;;;2.15;;
24485;SDS011;13449;49.374;8.584;2022-09-27T03:30:13;8.05;;;2.38;;
24485;SDS011;13449;49.374;8.584;2022-09-27T03:32:41;11.07;;;2.05;;
24485;SDS011;13449;49.374;8.584;2022-09-27T03:35:13;4.72;;;1.40;;
24485;SDS011;13449;49.374;8.584;2022-09-27T03:37:40;11.73;;;2.22;;
24485;SDS011;13449;49.374;8.584;2022-09-27T03:40:07;10.43;;;2.25;;
24485;SDS011;13449;49.374;8.584;2022-09-27T03:42:37;6.60;;;1.90;;
24485;SDS011;13449;49.374;8.584;2022-09-27T03:45:04;6.60;;;2.00;;
24485;SDS011;13449;49.374;8.584;2022-09-27T03:47:31;16.92;;;2.22;;
24485;SDS011;13449;49.374;8.584;2022-09-27T03:49:57;12.82;;;2.63;;
24485;SDS011;13449;49.374;8.584;2022-09-27T03:52:24;9.55;;;2.05;;
24485;SDS011;13449;49.374;8.584;2022-09-27T03:54:50;7.93;;;2.00;;
24485;SDS011;13449;49.374;8.584;2022-09-27T03:57:16;4.97;;;2.63;;
24485;SDS011;13449;49.374;8.584;2022-09-27T03:59:43;6.05;;;2.03;;
24485;SDS011;13449;49.374;8.584;2022-09-27T04:02:09;6.30;;;2.60;;
24485;SDS011;13449;49.374;8.584;2022-09-27T04:04:38;8.15;;;2.33;;
24485;SDS011;13449;49.374;8.584;2022-09-27T04:07:05;12.18;;;3.72;;
24485;SDS011;13449;49.374;8.584;2022-09-27T04:09:31;11.45;;;2.67;;
24485;SDS011;13449;49.374;8.584;2022-09-27T04:11:58;6.25;;;2.35;;
24485;SDS011;13449;49.374;8.584;2022-09-27T04:14:26;7.50;;;2.42;;
24485;SDS011;13449;49.374;8.584;2022-09-27T04:16:56;4.35;;;2.17;;
24485;SDS011;13449;49.374;8.584;2022-09-27T04:19:22;6.40;;;2.50;;
24485;SDS011;13449;49.374;8.584;2022-09-27T04:21:51;2.80;;;1.73;;
24485;SDS011;13449;49.374;8.584;2022-09-27T04:24:18;2.30;;;1.95;;
24485;SDS011;13449;49.374;8.584;2022-09-27T04:26:44;3.22;;;1.73;;
24485;SDS011;13449;49.374;8.584;2022-09-27T04:29:11;11.98;;;1.48;;
24485;SDS011;13449;49.374;8.584;2022-09-27T04:31:42;5.07;;;1.70;;
24485;SDS011;13449;49.374;8.584;2022-09-27T04:34:12;3.30;;;2.03;;
24485;SDS011;13449;49.374;8.584;2022-09-27T04:36:39;3.80;;;2.05;;
24485;SDS011;13449;49.374;8.584;2022-09-27T04:39:06;15.18;;;2.67;;
24485;SDS011;13449;49.374;8.584;2022-09-27T04:41:36;4.43;;;2.00;;
24485;SDS011;13449;49.374;8.584;2022-09-27T04:44:03;3.42;;;2.08;;
24485;SDS011;13449;49.374;8.584;2022-09-27T04:46:30;3.67;;;2.00;;
24485;SDS011;13449;49.374;8.584;2022-09-27T04:49:03;2.22;;;1.85;;
24485;SDS011;13449;49.374;8.584;2022-09-27T04:51:31;8.00;;;2.20;;
24485;SDS011;13449;49.374;8.584;2022-09-27T04:53:58;5.85;;;1.73;;
24485;SDS011;13449;49.374;8.584;2022-09-27T04:56:24;8.95;;;2.00;;
24485;SDS011;13449;49.374;8.584;2022-09-27T04:58:51;2.35;;;1.48;;
24485;SDS011;13449;49.374;8.584;2022-09-27T05:01:18;7.65;;;1.58;;
24485;SDS011;13449;49.374;8.584;2022-09-27T05:03:48;4.57;;;1.58;;
24485;SDS011;13449;49.374;8.584;2022-09-27T05:06:14;12.85;;;1.80;;
24485;SDS011;13449;49.374;8.584;2022-09-27T05:08:40;5.15;;;1.85;;
24485;SDS011;13449;49.374;8.584;2022-09-27T05:11:07;5.38;;;1.77;;
24485;SDS011;13449;49.374;8.584;2022-09-27T05:13:34;1.45;;;1.13;;
24485;SDS011;13449;49.374;8.584;2022-09-27T05:16:01;5.22;;;1.48;;
24485;SDS011;13449;49.374;8.584;2022-09-27T05:18:29;3.75;;;1.20;;
24485;SDS011;13449;49.374;8.584;2022-09-27T05:21:00;8.82;;;1.85;;
24485;SDS011;13449;49.374;8.584;2022-09-27T05:23:27;2.58;;;1.25;;
24485;SDS011;13449;49.374;8.584;2022-09-27T05:25:53;7.18;;;1.50;;
24485;SDS011;13449;49.374;8.584;2022-09-27T05:28:21;5.72;;;1.52;;
24485;SDS011;13449;49.374;8.584;2022-09-27T05:30:49;4.70;;;1.30;;
24485;SDS011;13449;49.374;8.584;2022-09-27T05:33:20;4.72;;;1.10;;
24485;SDS011;13449;49.374;8.584;2022-09-27T05:35:50;2.78;;;1.38;;
24485;SDS011;13449;49.374;8.584;2022-09-27T05:38:18;5.15;;;1.50;;
24485;SDS011;13449;49.374;8.584;2022-09-27T05:40:45;8.15;;;1.60;;
24485;SDS011;13449;49.374;8.584;2022-09-27T05:43:13;6.13;;;1.17;;
24485;SDS011;13449;49.374;8.584;2022-09-27T05:45:41;2.88;;;1.30;;
24485;SDS011;13449;49.374;8.584;2022-09-27T05:48:10;1.77;;;0.82;;
24485;SDS011;13449;49.374;8.584;2022-09-27T05:50:39;2.10;;;1.08;;
24485;SDS011;13449;49.374;8.584;2022-09-27T05:53:06;3.85;;;0.65;;
24485;SDS011;13449;49.374;8.584;2022-09-27T05:55:32;7.47;;;1.10;;
24485;SDS011;13449;49.374;8.584;2022-09-27T05:58:00;1.02;;;0.93;;
24485;SDS011;13449;49.374;8.584;2022-09-27T06:00:33;1.50;;;1.17;;
24485;SDS011;13449;49.374;8.584;2022-09-27T06:03:01;5.38;;;1.17;;
24485;SDS011;13449;49.374;8.584;2022-09-27T06:05:33;1.73;;;0.93;;
24485;SDS011;13449;49.374;8.584;2022-09-27T06:08:02;4.65;;;0.90;;
24485;SDS011;13449;49.374;8.584;2022-09-27T06:10:34;3.22;;;0.90;;
24485;SDS011;13449;49.374;8.584;2022-09-27T06:13:05;2.17;;;0.90;;
24485;SDS011;13449;49.374;8.584;2022-09-27T06:15:42;1.88;;;1.10;;
24485;SDS011;13449;49.374;8.584;2022-09-27T06:18:10;2.05;;;0.80;;
24485;SDS011;13449;49.374;8.584;2022-09-27T06:20:43;2.45;;;1.00;;
24485;SDS011;13449;49.374;8.584;2022-09-27T06:23:11;1.50;;;1.10;;
24485;SDS011;13449;49.374;8.584;2022-09-27T06:25:40;4.35;;;1.30;;
24485;SDS011;13449;49.374;8.584;2022-09-27T06:28:11;1.58;;;1.25;;
24485;SDS011;13449;49.374;8.584;2022-09-27T06:30:38;3.75;;;1.63;;
24485;SDS011;13449;49.374;8.584;2022-09-27T06:33:09;4.90;;;1.60;;
24485;SDS011;13449;49.374;8.584;2022-09-27T06:35:38;8.15;;;1.40;;
24485;SDS011;13449;49.374;8.584;2022-09-27T06:38:06;3.97;;;1.83;;
24485;SDS011;13449;49.374;8.584;2022-09-27T06:40:36;5.40;;;1.60;;
24485;SDS011;13449;49.374;8.584;2022-09-27T06:43:03;3.28;;;1.63;;
24485;SDS011;13449;49.374;8.584;2022-09-27T06:45:34;1.38;;;1.27;;
24485;SDS011;13449;49.374;8.584;2022-09-27T06:48:02;7.50;;;1.38;;
24485;SDS011;13449;49.374;8.584;2022-09-27T06:50:32;4.88;;;1.80;;
24485;SDS011;13449;49.374;8.584;2022-09-27T06:53:00;6.45;;;1.75;;
24485;SDS011;13449;49.374;8.584;2022-09-27T06:55:27;7.95;;;1.73;;
24485;SDS011;13449;49.374;8.584;2022-09-27T06:57:54;5.97;;;1.58;;
24485;SDS011;13449;49.374;8.584;2022-09-27T07:00:40;6.18;;;1.80;;
24485;SDS011;13449;49.374;8.584;2022-09-27T07:03:08;4.80;;;1.92;;
24485;SDS011;13449;49.374;8.584;2022-09-27T07:05:36;2.25;;;1.42;;
24485;SDS011;13449;49.374;8.584;2022-09-27T07:08:03;2.22;;;1.45;;
24485;SDS011;13449;49.374;8.584;2022-09-27T07:10:32;4.05;;;1.90;;
24485;SDS011;13449;49.374;8.584;2022-09-27T07:13:03;3.33;;;1.75;;
24485;SDS011;13449;49.374;8.584;2022-09-27T07:18:06;2.83;;;1.25;;
24485;SDS011;13449;49.374;8.584;2022-09-27T07:20:34;3.22;;;1.92;;
24485;SDS011;13449;49.374;8.584;2022-09-27T07:23:04;5.88;;;1.58;;
24485;SDS011;13449;49.374;8.584;2022-09-27T07:25:34;7.85;;;2.35;;
24485;SDS011;13449;49.374;8.584;2022-09-27T07:28:05;7.30;;;2.40;;
24485;SDS011;13449;49.374;8.584;2022-09-27T07:30:35;5.28;;;1.90;;
24485;SDS011;13449;49.374;8.584;2022-09-27T07:33:03;6.35;;;1.90;;
24485;SDS011;13449;49.374;8.584;2022-09-27T07:35:31;7.80;;;1.20;;
24485;SDS011;13449;49.374;8.584;2022-09-27T07:37:58;0.80;;;0.80;;
24485;SDS011;13449;49.374;8.584;2022-09-27T07:40:24;1.00;;;0.95;;
24485;SDS011;13449;49.374;8.584;2022-09-27T07:42:55;3.97;;;1.20;;
24485;SDS011;13449;49.374;8.584;2022-09-27T07:45:22;2.03;;;1.30;;
24485;SDS011;13449;49.374;8.584;2022-09-27T07:47:49;3.17;;;1.20;;
24485;SDS011;13449;49.374;8.584;2022-09-27T07:50:16;1.38;;;0.95;;
24485;SDS011;13449;49.374;8.584;2022-09-27T07:52:44;1.35;;;0.90;;
24485;SDS011;13449;49.374;8.584;2022-09-27T07:55:12;3.53;;;0.98;;
24485;SDS011;13449;49.374;8.584;2022-09-27T07:57:40;6.78;;;1.05;;
24485;SDS011;13449;49.374;8.584;2022-09-27T08:00:11;5.47;;;0.50;;
24485;SDS011;13449;49.374;8.584;2022-09-27T08:02:42;1.58;;;0.75;;
24485;SDS011;13449;49.374;8.584;2022-09-27T08:05:09;0.88;;;0.75;;
24485;SDS011;13449;49.374;8.584;2022-09-27T08:07:40;0.90;;;0.80;;
24485;SDS011;13449;49.374;8.584;2022-09-27T08:10:07;1.67;;;0.70;;
24485;SDS011;13449;49.374;8.584;2022-09-27T08:12:34;1.25;;;0.75;;
24485;SDS011;13449;49.374;8.584;2022-09-27T08:15:01;1.05;;;0.52;;
24485;SDS011;13449;49.374;8.584;2022-09-27T08:17:30;2.80;;;0.77;;
24485;SDS011;13449;49.374;8.584;2022-09-27T08:19:57;3.83;;;0.70;;
24485;SDS011;13449;49.374;8.584;2022-09-27T08:22:24;2.05;;;0.60;;
24485;SDS011;13449;49.374;8.584;2022-09-27T08:24:51;2.55;;;0.68;;
24485;SDS011;13449;49.374;8.584;2022-09-27T08:27:17;0.63;;;0.60;;
24485;SDS011;13449;49.374;8.584;2022-09-27T08:29:45;0.45;;;0.45;;
24485;SDS011;13449;49.374;8.584;2022-09-27T08:32:12;5.03;;;1.30;;
24485;SDS011;13449;49.374;8.584;2022-09-27T08:34:48;11.13;;;2.60;;
24485;SDS011;13449;49.374;8.584;2022-09-27T08:37:14;4.78;;;2.63;;
24485;SDS011;13449;49.374;8.584;2022-09-27T08:39:41;7.10;;;2.40;;
24485;SDS011;13449;49.374;8.584;2022-09-27T08:47:56;6.20;;;0.77;;
24485;SDS011;13449;49.374;8.584;2022-09-27T08:50:31;3.70;;;1.02;;
24485;SDS011;13449;49.374;8.584;2022-09-27T08:53:52;2.45;;;0.63;;
24485;SDS011;13449;49.374;8.584;2022-09-27T08:56:12;1.20;;;0.82;;
24485;SDS011;13449;49.374;8.584;2022-09-27T09:01:29;4.03;;;0.98;;
24485;SDS011;13449;49.374;8.584;2022-09-27T09:03:56;5.18;;;1.27;;
24485;SDS011;13449;49.374;8.584;2022-09-27T09:06:36;5.28;;;0.93;;
24485;SDS011;13449;49.374;8.584;2022-09-27T09:26:30;3.10;;;0.95;;
24485;SDS011;13449;49.374;8.584;2022-09-27T09:35:02;2.75;;;1.20;;
24485;SDS011;13449;49.374;8.584;2022-09-27T09:45:58;3.38;;;1.10;;
24485;SDS011;13449;49.374;8.584;2022-09-27T09:51:23;6.65;;;1.50;;
24485;SDS011;13449;49.374;8.584;2022-09-27T09:53:55;8.77;;;1.58;;
24485;SDS011;13449;49.374;8.584;2022-09-27T09:56:31;3.00;;;1.20;;
24485;SDS011;13449;49.374;8.584;2022-09-27T09:59:11;1.00;;;0.80;;
24485;SDS011;13449;49.374;8.584;2022-09-27T10:01:43;1.77;;;0.90;;
24485;SDS011;13449;49.374;8.584;2022-09-27T10:04:22;1.13;;;0.95;;
24485;SDS011;13449;49.374;8.584;2022-09-27T10:06:51;3.58;;;1.27;;
24485;SDS011;13449;49.374;8.584;2022-09-27T10:09:24;2.17;;;0.80;;
24485;SDS011;13449;49.374;8.584;2022-09-27T10:11:52;4.28;;;1.70;;
24485;SDS011;13449;49.374;8.584;2022-09-27T10:14:21;2.55;;;1.50;;
24485;SDS011;13449;49.374;8.584;2022-09-27T10:16:49;3.35;;;1.67;;
24485;SDS011;13449;49.374;8.584;2022-09-27T10:19:28;11.60;;;2.78;;
24485;SDS011;13449;49.374;8.584;2022-09-27T10:22:01;1.27;;;1.05;;
24485;SDS011;13449;49.374;8.584;2022-09-27T10:24:51;1.30;;;0.40;;
24485;SDS011;13449;49.374;8.584;2022-09-27T10:30:22;6.90;;;2.85;;
24485;SDS011;13449;49.374;8.584;2022-09-27T10:32:56;6.20;;;1.90;;
24485;SDS011;13449;49.374;8.584;2022-09-27T10:40:48;2.67;;;0.95;;
24485;SDS011;13449;49.374;8.584;2022-09-27T10:46:05;5.18;;;1.38;;
24485;SDS011;13449;49.374;8.584;2022-09-27T10:48:38;1.95;;;1.63;;
24485;SDS011;13449;49.374;8.584;2022-09-27T10:51:19;8.20;;;1.52;;
24485;SDS011;13449;49.374;8.584;2022-09-27T10:53:49;4.80;;;1.65;;
24485;SDS011;13449;49.374;8.584;2022-09-27T10:56:20;3.38;;;1.85;;
24485;SDS011;13449;49.374;8.584;2022-09-27T10:58:55;8.25;;;2.28;;
24485;SDS011;13449;49.374;8.584;2022-09-27T11:01:25;2.08;;;1.10;;
24485;SDS011;13449;49.374;8.584;2022-09-27T11:04:03;2.92;;;0.70;;
24485;SDS011;13449;49.374;8.584;2022-09-27T11:06:30;1.33;;;0.95;;
24485;SDS011;13449;49.374;8.584;2022-09-27T11:09:14;3.03;;;0.60;;
24485;SDS011;13449;49.374;8.584;2022-09-27T11:12:13;1.42;;;1.33;;
24485;SDS011;13449;49.374;8.584;2022-09-27T11:14:39;1.75;;;0.80;;
24485;SDS011;13449;49.374;8.584;2022-09-27T11:17:08;2.42;;;0.98;;
24485;SDS011;13449;49.374;8.584;2022-09-27T11:30:20;2.28;;;0.85;;
24485;SDS011;13449;49.374;8.584;2022-09-27T11:36:11;2.40;;;0.90;;
24485;SDS011;13449;49.374;8.584;2022-09-27T11:50:17;1.20;;;1.10;;
24485;SDS011;13449;49.374;8.584;2022-09-27T11:53:00;1.73;;;1.23;;
24485;SDS011;13449;49.374;8.584;2022-09-27T12:07:24;8.73;;;4.75;;
24485;SDS011;13449;49.374;8.584;2022-09-27T12:09:54;10.20;;;2.67;;
24485;SDS011;13449;49.374;8.584;2022-09-27T12:12:26;1.10;;;0.77;;
24485;SDS011;13449;49.374;8.584;2022-09-27T12:15:12;6.10;;;1.80;;
24485;SDS011;13449;49.374;8.584;2022-09-27T12:17:42;2.25;;;0.75;;
24485;SDS011;13449;49.374;8.584;2022-09-27T12:22:52;1.67;;;0.82;;
24485;SDS011;13449;49.374;8.584;2022-09-27T12:25:26;5.25;;;1.40;;
24485;SDS011;13449;49.374;8.584;2022-09-27T12:28:08;1.35;;;1.10;;
24485;SDS011;13449;49.374;8.584;2022-09-27T12:30:44;1.27;;;0.70;;
24485;SDS011;13449;49.374;8.584;2022-09-27T12:33:37;1.27;;;0.77;;
24485;SDS011;13449;49.374;8.584;2022-09-27T12:36:17;2.20;;;1.38;;
24485;SDS011;13449;49.374;8.584;2022-09-27T12:38:55;1.50;;;0.52;;
24485;SDS011;13449;49.374;8.584;2022-09-27T12:41:27;1.90;;;0.85;;
24485;SDS011;13449;49.374;8.584;2022-09-27T12:43:57;0.80;;;0.55;;
24485;SDS011;13449;49.374;8.584;2022-09-27T12:46:43;3.05;;;2.10;;
24485;SDS011;13449;49.374;8.584;2022-09-27T12:49:25;1.38;;;1.00;;
24485;SDS011;13449;49.374;8.584;2022-09-27T12:52:15;3.30;;;2.00;;
24485;SDS011;13449;49.374;8.584;2022-09-27T12:57:58;5.18;;;2.15;;
24485;SDS011;13449;49.374;8.584;2022-09-27T13:00:41;2.97;;;1.20;;
24485;SDS011;13449;49.374;8.584;2022-09-27T13:14:31;7.55;;;0.50;;
24485;SDS011;13449;49.374;8.584;2022-09-27T13:17:03;14.70;;;1.33;;
24485;SDS011;13449;49.374;8.584;2022-09-27T13:19:40;4.72;;;0.57;;
24485;SDS011;13449;49.374;8.584;2022-09-27T13:22:39;6.82;;;2.60;;
24485;SDS011;13449;49.374;8.584;2022-09-27T13:25:13;1.08;;;0.98;;
24485;SDS011;13449;49.374;8.584;2022-09-27T13:30:57;3.10;;;1.25;;
24485;SDS011;13449;49.374;8.584;2022-09-27T13:47:28;1.83;;;0.60;;
24485;SDS011;13449;49.374;8.584;2022-09-27T13:53:27;1.92;;;0.80;;
24485;SDS011;13449;49.374;8.584;2022-09-27T13:55:59;6.70;;;0.90;;
24485;SDS011;13449;49.374;8.584;2022-09-27T13:58:35;2.97;;;0.63;;
24485;SDS011;13449;49.374;8.584;2022-09-27T14:01:25;2.70;;;1.27;;
24485;SDS011;13449;49.374;8.584;2022-09-27T14:03:56;1.40;;;0.52;;
24485;SDS011;13449;49.374;8.584;2022-09-27T14:06:29;0.85;;;0.57;;
24485;SDS011;13449;49.374;8.584;2022-09-27T14:11:38;7.60;;;0.45;;
24485;SDS011;13449;49.374;8.584;2022-09-27T14:14:13;1.05;;;0.55;;
24485;SDS011;13449;49.374;8.584;2022-09-27T14:16:48;0.93;;;0.30;;
24485;SDS011;13449;49.374;8.584;2022-09-27T14:19:18;0.88;;;0.50;;
24485;SDS011;13449;49.374;8.584;2022-09-27T14:21:47;0.43;;;0.35;;
24485;SDS011;13449;49.374;8.584;2022-09-27T14:29:50;1.23;;;0.60;;
24485;SDS011;13449;49.374;8.584;2022-09-27T14:32:32;5.20;;;1.35;;
24485;SDS011;13449;49.374;8.584;2022-09-27T14:35:04;1.55;;;0.40;;
24485;SDS011;13449;49.374;8.584;2022-09-27T14:37:55;0.50;;;0.50;;
24485;SDS011;13449;49.374;8.584;2022-09-27T14:40:24;5.57;;;0.50;;
24485;SDS011;13449;49.374;8.584;2022-09-27T14:42:54;0.85;;;0.52;;
24485;SDS011;13449;49.374;8.584;2022-09-27T14:45:25;18.20;;;6.32;;
24485;SDS011;13449;49.374;8.584;2022-09-27T14:47:59;15.65;;;6.47;;
24485;SDS011;13449;49.374;8.584;2022-09-27T14:50:43;6.65;;;3.20;;
24485;SDS011;13449;49.374;8.584;2022-09-27T14:53:44;15.73;;;6.10;;
24485;SDS011;13449;49.374;8.584;2022-09-27T14:56:14;10.45;;;3.33;;
24485;SDS011;13449;49.374;8.584;2022-09-27T14:58:44;9.40;;;4.20;;
24485;SDS011;13449;49.374;8.584;2022-09-27T15:01:14;1.65;;;0.77;;
24485;SDS011;13449;49.374;8.584;2022-09-27T15:03:42;1.85;;;0.88;;
24485;SDS011;13449;49.374;8.584;2022-09-27T15:06:17;0.60;;;0.55;;
24485;SDS011;13449;49.374;8.584;2022-09-27T15:08:45;1.75;;;0.60;;
24485;SDS011;13449;49.374;8.584;2022-09-27T15:11:15;0.50;;;0.47;;
24485;SDS011;13449;49.374;8.584;2022-09-27T15:13:43;1.30;;;0.70;;
24485;SDS011;13449;49.374;8.584;2022-09-27T15:16:14;2.17;;;0.75;;
24485;SDS011;13449;49.374;8.584;2022-09-27T15:18:46;1.00;;;0.60;;
24485;SDS011;13449;49.374;8.584;2022-09-27T15:21:15;8.73;;;0.63;;
24485;SDS011;13449;49.374;8.584;2022-09-27T15:23:54;6.47;;;0.85;;
24485;SDS011;13449;49.374;8.584;2022-09-27T15:26:21;1.45;;;0.55;;
24485;SDS011;13449;49.374;8.584;2022-09-27T15:29:18;0.40;;;0.40;;
24485;SDS011;13449;49.374;8.584;2022-09-27T15:31:57;0.93;;;0.90;;
24485;SDS011;13449;49.374;8.584;2022-09-27T15:34:33;1.50;;;0.73;;
24485;SDS011;13449;49.374;8.584;2022-09-27T15:37:02;2.10;;;0.80;;
24485;SDS011;13449;49.374;8.584;2022-09-27T15:39:32;2.30;;;0.68;;
24485;SDS011;13449;49.374;8.584;2022-09-27T15:42:04;6.13;;;1.20;;
24485;SDS011;13449;49.374;8.584;2022-09-27T15:44:43;2.92;;;1.00;;
24485;SDS011;13449;49.374;8.584;2022-09-27T15:55:18;0.93;;;0.60;;
24485;SDS011;13449;49.374;8.584;2022-09-27T15:57:53;1.30;;;0.30;;
24485;SDS011;13449;49.374;8.584;2022-09-27T16:00:27;0.70;;;0.50;;
24485;SDS011;13449;49.374;8.584;2022-09-27T16:02:54;0.90;;;0.20;;
24485;SDS011;13449;49.374;8.584;2022-09-27T16:05:23;0.95;;;0.43;;
24485;SDS011;13449;49.374;8.584;2022-09-27T16:07:49;1.88;;;0.30;;
24485;SDS011;13449;49.374;8.584;2022-09-27T16:10:20;0.45;;;0.38;;
24485;SDS011;13449;49.374;8.584;2022-09-27T16:12:49;0.40;;;0.40;;
24485;SDS011;13449;49.374;8.584;2022-09-27T16:15:18;1.45;;;0.30;;
24485;SDS011;13449;49.374;8.584;2022-09-27T16:17:45;0.82;;;0.30;;
24485;SDS011;13449;49.374;8.584;2022-09-27T16:20:18;1.67;;;0.40;;
24485;SDS011;13449;49.374;8.584;2022-09-27T16:22:52;0.30;;;0.20;;
24485;SDS011;13449;49.374;8.584;2022-09-27T16:25:19;0.93;;;0.20;;
24485;SDS011;13449;49.374;8.584;2022-09-27T16:27:47;4.10;;;0.90;;
24485;SDS011;13449;49.374;8.584;2022-09-27T16:30:14;1.08;;;0.82;;
24485;SDS011;13449;49.374;8.584;2022-09-27T16:32:42;8.25;;;4.00;;
24485;SDS011;13449;49.374;8.584;2022-09-27T16:35:13;2.25;;;1.67;;
24485;SDS011;13449;49.374;8.584;2022-09-27T16:37:41;2.80;;;0.93;;
24485;SDS011;13449;49.374;8.584;2022-09-27T16:40:11;1.15;;;0.75;;
24485;SDS011;13449;49.374;8.584;2022-09-27T16:42:39;1.17;;;0.70;;
24485;SDS011;13449;49.374;8.584;2022-09-27T16:45:06;7.85;;;2.80;;
24485;SDS011;13449;49.374;8.584;2022-09-27T16:50:08;1.65;;;0.93;;
24485;SDS011;13449;49.374;8.584;2022-09-27T16:52:54;0.82;;;0.50;;
24485;SDS011;13449;49.374;8.584;2022-09-27T16:55:21;2.22;;;0.77;;
24485;SDS011;13449;49.374;8.584;2022-09-27T16:57:48;2.67;;;0.50;;
24485;SDS011;13449;49.374;8.584;2022-09-27T17:00:16;0.50;;;0.47;;
24485;SDS011;13449;49.374;8.584;2022-09-27T17:02:43;0.65;;;0.47;;
24485;SDS011;13449;49.374;8.584;2022-09-27T17:05:14;1.80;;;0.70;;
24485;SDS011;13449;49.374;8.584;2022-09-27T17:07:41;3.67;;;1.15;;
24485;SDS011;13449;49.374;8.584;2022-09-27T17:10:10;2.72;;;1.23;;
24485;SDS011;13449;49.374;8.584;2022-09-27T17:12:36;3.90;;;1.67;;
24485;SDS011;13449;49.374;8.584;2022-09-27T17:15:03;3.95;;;1.00;;
24485;SDS011;13449;49.374;8.584;2022-09-27T17:17:32;3.63;;;1.92;;
24485;SDS011;13449;49.374;8.584;2022-09-27T17:19:58;8.02;;;2.67;;
24485;SDS011;13449;49.374;8.584;2022-09-27T17:22:25;7.85;;;2.33;;
24485;SDS011;13449;49.374;8.584;2022-09-27T17:24:54;7.57;;;2.97;;
24485;SDS011;13449;49.374;8.584;2022-09-27T17:27:20;14.10;;;4.75;;
24485;SDS011;13449;49.374;8.584;2022-09-27T17:29:51;12.23;;;4.10;;
24485;SDS011;13449;49.374;8.584;2022-09-27T17:32:17;5.13;;;2.22;;
24485;SDS011;13449;49.374;8.584;2022-09-27T17:34:47;3.85;;;1.83;;
24485;SDS011;13449;49.374;8.584;2022-09-27T17:37:13;3.85;;;2.28;;
24485;SDS011;13449;49.374;8.584;2022-09-27T17:39:42;11.57;;;3.88;;
24485;SDS011;13449;49.374;8.584;2022-09-27T17:42:09;11.02;;;3.78;;
24485;SDS011;13449;49.374;8.584;2022-09-27T17:44:36;21.85;;;7.05;;
24485;SDS011;13449;49.374;8.584;2022-09-27T17:47:03;15.93;;;4.93;;
24485;SDS011;13449;49.374;8.584;2022-09-27T17:49:48;9.90;;;2.80;;
24485;SDS011;13449;49.374;8.584;2022-09-27T17:52:33;2.33;;;0.90;;
24485;SDS011;13449;49.374;8.584;2022-09-27T17:55:00;5.38;;;1.50;;
24485;SDS011;13449;49.374;8.584;2022-09-27T17:57:26;3.55;;;1.42;;
24485;SDS011;13449;49.374;8.584;2022-09-27T17:59:53;6.03;;;2.25;;
24485;SDS011;13449;49.374;8.584;2022-09-27T18:02:23;4.85;;;1.52;;
24485;SDS011;13449;49.374;8.584;2022-09-27T18:04:50;0.90;;;0.70;;
24485;SDS011;13449;49.374;8.584;2022-09-27T18:07:21;1.30;;;0.97;;
24485;SDS011;13449;49.374;8.584;2022-09-27T18:09:48;3.85;;;1.17;;
24485;SDS011;13449;49.374;8.584;2022-09-27T18:12:16;8.15;;;3.20;;
24485;SDS011;13449;49.374;8.584;2022-09-27T18:14:42;4.95;;;1.25;;
24485;SDS011;13449;49.374;8.584;2022-09-27T18:17:10;1.35;;;1.00;;
24485;SDS011;13449;49.374;8.584;2022-09-27T18:19:39;2.92;;;1.25;;
24485;SDS011;13449;49.374;8.584;2022-09-27T18:22:07;2.63;;;0.93;;